EZY2356 LSGG-EGBB
Flight info
| Callsign | EZY2356 |
|---|---|
| Flight time | N/A |
| Altitude | 38000 |
| Route | SIROD1N SIROD Z124 IBABA DCT TUTAX DCT OBURO DCT OKRIX DCT CLM DCT KOPOR DCT ABNUR DCT DIMAL DCT ALESO T420 HEMEL HEMEL1B |
| Aircraft | A320/M-SDE3FGHIRWY/LB1 |
Departure
| Time | 2026-05-07 21:02 |
|---|---|
| Airport | Geneva International Airport (LSGG) |
Arrival
| Time | N/A |
|---|---|
| Airport | Birmingham Airport (EGBB) |
| Time | Latitude | Longitude | Altitude | Speed | Heading |
|---|---|---|---|---|---|
| 2026-05-07 20:32 | 46.23792 | 6.11344 | 1395 ft | 0 kts | 135° |
| 2026-05-07 20:34 | 46.23792 | 6.11343 | 1395 ft | 0 kts | 133° |
| 2026-05-07 20:53 | 46.23797 | 6.11336 | 1395 ft | 4 kts | 136° |
| 2026-05-07 20:53 | 46.23818 | 6.11313 | 1406 ft | 4 kts | 158° |
| 2026-05-07 20:54 | 46.23843 | 6.11305 | 1408 ft | 4 kts | 188° |
| 2026-05-07 20:54 | 46.23867 | 6.11318 | 1405 ft | 3 kts | 222° |
| 2026-05-07 20:54 | 46.23870 | 6.11322 | 1405 ft | 1 kts | 225° |
| 2026-05-07 20:56 | 46.23865 | 6.11315 | 1405 ft | 3 kts | 225° |
| 2026-05-07 20:57 | 46.23851 | 6.11293 | 1408 ft | 3 kts | 225° |
| 2026-05-07 20:57 | 46.23832 | 6.11266 | 1405 ft | 4 kts | 225° |
| 2026-05-07 20:57 | 46.23812 | 6.11237 | 1402 ft | 4 kts | 225° |
| 2026-05-07 20:57 | 46.23784 | 6.11196 | 1400 ft | 8 kts | 225° |
| 2026-05-07 20:58 | 46.23735 | 6.11124 | 1402 ft | 13 kts | 225° |
| 2026-05-07 20:58 | 46.23656 | 6.11006 | 1398 ft | 20 kts | 226° |
| 2026-05-07 20:58 | 46.23549 | 6.10848 | 1398 ft | 24 kts | 226° |
| 2026-05-07 20:58 | 46.23420 | 6.10662 | 1402 ft | 27 kts | 223° |
| 2026-05-07 20:59 | 46.23283 | 6.10472 | 1408 ft | 28 kts | 225° |
| 2026-05-07 20:59 | 46.23146 | 6.10270 | 1400 ft | 29 kts | 230° |
| 2026-05-07 20:59 | 46.23003 | 6.10050 | 1397 ft | 31 kts | 225° |
| 2026-05-07 20:59 | 46.22848 | 6.09823 | 1401 ft | 32 kts | 225° |
| 2026-05-07 21:00 | 46.22692 | 6.09595 | 1404 ft | 31 kts | 225° |
| 2026-05-07 21:00 | 46.22560 | 6.09368 | 1406 ft | 26 kts | 247° |
| 2026-05-07 21:00 | 46.22554 | 6.09340 | 1403 ft | 0 kts | 256° |
| 2026-05-07 21:01 | 46.22552 | 6.09324 | 1406 ft | 5 kts | 259° |
| 2026-05-07 21:01 | 46.22549 | 6.09234 | 1401 ft | 13 kts | 270° |
| 2026-05-07 21:01 | 46.22620 | 6.09165 | 1402 ft | 16 kts | 19° |
| 2026-05-07 21:01 | 46.22770 | 6.09380 | 1405 ft | 61 kts | 46° |
| 2026-05-07 21:02 | 46.23236 | 6.10057 | 1404 ft | 126 kts | 45° |
| 2026-05-07 21:02 | 46.23969 | 6.11136 | 1470 ft | 167 kts | 44° |
| 2026-05-07 21:02 | 46.24802 | 6.12355 | 2079 ft | 175 kts | 45° |
| 2026-05-07 21:02 | 46.25666 | 6.13627 | 2765 ft | 179 kts | 46° |
| 2026-05-07 21:03 | 46.26536 | 6.14918 | 3436 ft | 180 kts | 46° |
| 2026-05-07 21:03 | 46.27441 | 6.16255 | 4020 ft | 189 kts | 46° |
| 2026-05-07 21:03 | 46.28371 | 6.17621 | 4755 ft | 193 kts | 46° |
| 2026-05-07 21:03 | 46.29327 | 6.19020 | 5427 ft | 199 kts | 46° |
| 2026-05-07 21:04 | 46.30315 | 6.20468 | 6064 ft | 206 kts | 46° |
| 2026-05-07 21:04 | 46.31333 | 6.21964 | 6695 ft | 212 kts | 46° |
| 2026-05-07 21:04 | 46.32376 | 6.23500 | 7364 ft | 216 kts | 46° |
| 2026-05-07 21:04 | 46.33439 | 6.25065 | 8001 ft | 221 kts | 46° |
| 2026-05-07 21:05 | 46.34537 | 6.26681 | 8125 ft | 224 kts | 46° |
| 2026-05-07 21:05 | 46.35751 | 6.28163 | 8195 ft | 241 kts | 22° |
| 2026-05-07 21:05 | 46.37452 | 6.28504 | 8559 ft | 260 kts | 348° |
| 2026-05-07 21:05 | 46.39298 | 6.27913 | 8953 ft | 283 kts | 344° |
| 2026-05-07 21:06 | 46.41262 | 6.27239 | 9640 ft | 295 kts | 343° |
| 2026-05-07 21:06 | 46.43287 | 6.26556 | 10338 ft | 306 kts | 344° |
| 2026-05-07 21:06 | 46.45439 | 6.25833 | 10694 ft | 327 kts | 344° |
| 2026-05-07 21:06 | 46.47687 | 6.25090 | 11394 ft | 335 kts | 345° |
| 2026-05-07 21:07 | 46.49979 | 6.24350 | 12234 ft | 339 kts | 345° |
| 2026-05-07 21:07 | 46.52293 | 6.23608 | 13080 ft | 342 kts | 346° |
| 2026-05-07 21:07 | 46.54609 | 6.22866 | 14071 ft | 334 kts | 346° |
| 2026-05-07 21:07 | 46.56767 | 6.22175 | 14934 ft | 300 kts | 345° |
| 2026-05-07 21:08 | 46.58716 | 6.21546 | 15247 ft | 276 kts | 345° |
| 2026-05-07 21:08 | 46.60531 | 6.20842 | 15470 ft | 276 kts | 335° |
| 2026-05-07 21:08 | 46.62226 | 6.19315 | 15590 ft | 298 kts | 315° |
| 2026-05-07 21:08 | 46.63666 | 6.17007 | 15827 ft | 317 kts | 309° |
| 2026-05-07 21:09 | 46.65095 | 6.14610 | 16862 ft | 307 kts | 309° |
| 2026-05-07 21:09 | 46.66522 | 6.12229 | 17464 ft | 315 kts | 309° |
| 2026-05-07 21:09 | 46.67965 | 6.09826 | 18270 ft | 315 kts | 309° |
| 2026-05-07 21:09 | 46.69446 | 6.07363 | 18527 ft | 333 kts | 309° |
| 2026-05-07 21:10 | 46.71017 | 6.04745 | 18691 ft | 351 kts | 309° |
| 2026-05-07 21:10 | 46.72478 | 6.01860 | 19113 ft | 357 kts | 299° |
| 2026-05-07 21:10 | 46.73561 | 5.98585 | 19668 ft | 359 kts | 289° |
| 2026-05-07 21:10 | 46.74432 | 5.95160 | 20254 ft | 362 kts | 289° |
| 2026-05-07 21:11 | 46.75309 | 5.91699 | 20841 ft | 365 kts | 289° |
| 2026-05-07 21:11 | 46.76191 | 5.88208 | 21427 ft | 368 kts | 288° |
| 2026-05-07 21:11 | 46.77969 | 5.81149 | 22548 ft | 374 kts | 288° |
| 2026-05-07 21:12 | 46.78858 | 5.77625 | 23096 ft | 377 kts | 288° |
| 2026-05-07 21:12 | 46.79775 | 5.73979 | 23631 ft | 379 kts | 288° |
| 2026-05-07 21:12 | 46.80687 | 5.70344 | 24091 ft | 382 kts | 288° |
| 2026-05-07 21:12 | 46.81592 | 5.66737 | 24498 ft | 385 kts | 288° |
| 2026-05-07 21:13 | 46.82521 | 5.63024 | 24947 ft | 388 kts | 288° |
| 2026-05-07 21:13 | 46.83436 | 5.59360 | 25414 ft | 390 kts | 288° |
| 2026-05-07 21:13 | 46.84376 | 5.55588 | 25708 ft | 393 kts | 288° |
| 2026-05-07 21:13 | 46.85159 | 5.52434 | 25966 ft | 394 kts | 288° |
| 2026-05-07 21:14 | 46.86108 | 5.48604 | 26385 ft | 395 kts | 288° |
| 2026-05-07 21:14 | 46.87029 | 5.44890 | 26529 ft | 393 kts | 288° |
| 2026-05-07 21:14 | 46.87961 | 5.41140 | 26558 ft | 393 kts | 288° |
| 2026-05-07 21:14 | 46.88909 | 5.37371 | 26960 ft | 395 kts | 288° |
| 2026-05-07 21:15 | 46.89870 | 5.33595 | 27414 ft | 397 kts | 288° |
| 2026-05-07 21:15 | 46.90839 | 5.29804 | 27836 ft | 400 kts | 289° |
| 2026-05-07 21:15 | 46.92056 | 5.26124 | 28032 ft | 405 kts | 298° |
| 2026-05-07 21:15 | 46.93724 | 5.22787 | 28156 ft | 412 kts | 309° |
| 2026-05-07 21:16 | 46.95802 | 5.19858 | 28550 ft | 417 kts | 315° |
| 2026-05-07 21:16 | 46.97969 | 5.17022 | 28949 ft | 419 kts | 314° |
| 2026-05-07 21:16 | 47.00138 | 5.14159 | 29344 ft | 421 kts | 314° |
| 2026-05-07 21:16 | 47.02315 | 5.11269 | 29737 ft | 423 kts | 314° |
| 2026-05-07 21:17 | 47.04495 | 5.08364 | 30123 ft | 425 kts | 314° |
| 2026-05-07 21:17 | 47.06689 | 5.05435 | 30427 ft | 427 kts | 314° |
| 2026-05-07 21:17 | 47.08891 | 5.02492 | 30757 ft | 429 kts | 314° |
| 2026-05-07 21:17 | 47.11096 | 4.99549 | 31079 ft | 430 kts | 314° |
| 2026-05-07 21:18 | 47.13318 | 4.96591 | 31381 ft | 432 kts | 314° |
| 2026-05-07 21:18 | 47.15554 | 4.93618 | 31712 ft | 433 kts | 314° |
| 2026-05-07 21:18 | 47.17784 | 4.90647 | 32084 ft | 433 kts | 314° |
| 2026-05-07 21:18 | 47.20011 | 4.87674 | 32495 ft | 431 kts | 314° |
| 2026-05-07 21:19 | 47.22227 | 4.84710 | 32920 ft | 430 kts | 314° |
| 2026-05-07 21:19 | 47.24438 | 4.81753 | 33330 ft | 429 kts | 314° |
| 2026-05-07 21:19 | 47.26638 | 4.78806 | 33750 ft | 427 kts | 314° |
| 2026-05-07 21:19 | 47.28830 | 4.75860 | 34168 ft | 426 kts | 313° |
| 2026-05-07 21:20 | 47.31014 | 4.72914 | 34516 ft | 425 kts | 313° |
| 2026-05-07 21:20 | 47.33193 | 4.69968 | 34828 ft | 425 kts | 313° |
| 2026-05-07 21:20 | 47.35368 | 4.67028 | 35112 ft | 425 kts | 313° |
| 2026-05-07 21:20 | 47.37549 | 4.64079 | 35391 ft | 425 kts | 314° |
| 2026-05-07 21:21 | 47.39701 | 4.61170 | 35657 ft | 425 kts | 314° |
| 2026-05-07 21:21 | 47.41881 | 4.58219 | 35917 ft | 425 kts | 313° |
| 2026-05-07 21:21 | 47.44062 | 4.55259 | 36173 ft | 426 kts | 313° |
| 2026-05-07 21:21 | 47.46244 | 4.52295 | 36416 ft | 427 kts | 313° |
| 2026-05-07 21:22 | 47.48430 | 4.49328 | 36649 ft | 427 kts | 314° |
| 2026-05-07 21:22 | 47.50618 | 4.46362 | 36906 ft | 427 kts | 314° |
| 2026-05-07 21:22 | 47.52809 | 4.43387 | 37160 ft | 427 kts | 314° |
| 2026-05-07 21:22 | 47.54994 | 4.40417 | 37385 ft | 427 kts | 314° |
| 2026-05-07 21:23 | 47.57184 | 4.37432 | 37620 ft | 427 kts | 314° |
| 2026-05-07 21:23 | 47.59368 | 4.34447 | 37844 ft | 428 kts | 314° |
| 2026-05-07 21:23 | 47.61553 | 4.31455 | 38022 ft | 428 kts | 314° |
| 2026-05-07 21:23 | 47.63739 | 4.28457 | 38057 ft | 427 kts | 313° |
| 2026-05-07 21:24 | 47.67380 | 4.21632 | 38062 ft | 420 kts | 300° |
| 2026-05-07 21:24 | 47.70648 | 4.14423 | 38056 ft | 422 kts | 301° |
| 2026-05-07 21:25 | 47.73939 | 4.07210 | 38065 ft | 422 kts | 301° |
| 2026-05-07 21:25 | 47.77222 | 3.99980 | 38060 ft | 422 kts | 301° |
| 2026-05-07 21:26 | 47.80498 | 3.92737 | 38063 ft | 422 kts | 301° |
| 2026-05-07 21:26 | 47.83764 | 3.85474 | 38061 ft | 422 kts | 300° |
| 2026-05-07 21:27 | 47.87027 | 3.78195 | 38061 ft | 422 kts | 300° |
| 2026-05-07 21:27 | 47.90268 | 3.70965 | 38064 ft | 422 kts | 300° |
| 2026-05-07 21:28 | 47.93528 | 3.63675 | 38068 ft | 422 kts | 300° |
| 2026-05-07 21:28 | 47.97477 | 3.57157 | 38079 ft | 430 kts | 320° |
| 2026-05-07 21:29 | 48.02783 | 3.52921 | 38066 ft | 437 kts | 334° |
| 2026-05-07 21:29 | 48.08398 | 3.49450 | 38062 ft | 437 kts | 334° |
| 2026-05-07 21:30 | 48.14023 | 3.45956 | 38063 ft | 437 kts | 334° |
| 2026-05-07 21:30 | 48.19644 | 3.42449 | 38077 ft | 438 kts | 334° |
| 2026-05-07 21:31 | 48.25265 | 3.38934 | 38073 ft | 438 kts | 334° |
| 2026-05-07 21:31 | 48.30896 | 3.35406 | 38073 ft | 438 kts | 334° |
| 2026-05-07 21:32 | 48.36527 | 3.31876 | 38073 ft | 439 kts | 334° |
| 2026-05-07 21:32 | 48.42159 | 3.28326 | 38087 ft | 439 kts | 334° |
| 2026-05-07 21:33 | 48.46876 | 3.25334 | 38080 ft | 439 kts | 334° |
| 2026-05-07 21:33 | 48.52461 | 3.21786 | 38081 ft | 439 kts | 334° |
| 2026-05-07 21:34 | 48.58101 | 3.18222 | 38081 ft | 439 kts | 334° |
| 2026-05-07 21:34 | 48.63730 | 3.14650 | 38099 ft | 439 kts | 334° |
| 2026-05-07 21:35 | 48.69365 | 3.11059 | 38093 ft | 439 kts | 334° |
| 2026-05-07 21:35 | 48.74990 | 3.07465 | 38085 ft | 439 kts | 334° |
| 2026-05-07 21:36 | 48.80621 | 3.03856 | 38094 ft | 439 kts | 334° |
| 2026-05-07 21:36 | 48.86137 | 2.99932 | 38078 ft | 436 kts | 327° |
| 2026-05-07 21:37 | 48.91394 | 2.95325 | 38074 ft | 437 kts | 327° |
| 2026-05-07 21:37 | 48.96665 | 2.90728 | 38088 ft | 437 kts | 327° |
| 2026-05-07 21:38 | 49.01937 | 2.86122 | 38076 ft | 437 kts | 327° |
| 2026-05-07 21:38 | 49.07201 | 2.81495 | 38091 ft | 437 kts | 327° |
| 2026-05-07 21:39 | 49.12459 | 2.76849 | 38093 ft | 437 kts | 327° |
| 2026-05-07 21:39 | 49.17719 | 2.72197 | 38092 ft | 437 kts | 327° |
| 2026-05-07 21:40 | 49.22984 | 2.67534 | 38088 ft | 437 kts | 327° |
| 2026-05-07 21:40 | 49.28242 | 2.62866 | 38107 ft | 437 kts | 327° |
| 2026-05-07 21:41 | 49.33507 | 2.58183 | 38096 ft | 437 kts | 327° |
| 2026-05-07 21:41 | 49.38769 | 2.53484 | 38093 ft | 437 kts | 327° |
| 2026-05-07 21:42 | 49.44029 | 2.48782 | 38091 ft | 438 kts | 327° |
| 2026-05-07 21:42 | 49.49285 | 2.44065 | 38091 ft | 438 kts | 327° |
| 2026-05-07 21:43 | 49.54560 | 2.39391 | 38102 ft | 438 kts | 328° |
| 2026-05-07 21:43 | 49.59917 | 2.34897 | 38099 ft | 438 kts | 329° |
| 2026-05-07 21:44 | 49.65278 | 2.30426 | 38096 ft | 438 kts | 328° |
| 2026-05-07 21:44 | 49.70621 | 2.25904 | 38092 ft | 438 kts | 328° |
| 2026-05-07 21:45 | 49.75951 | 2.21344 | 38111 ft | 438 kts | 328° |
| 2026-05-07 21:45 | 49.81287 | 2.16789 | 38103 ft | 438 kts | 328° |
| 2026-05-07 21:46 | 49.86629 | 2.12224 | 38093 ft | 438 kts | 328° |
| 2026-05-07 21:46 | 49.91964 | 2.07649 | 38096 ft | 438 kts | 328° |
| 2026-05-07 21:47 | 49.97298 | 2.03056 | 38106 ft | 438 kts | 328° |
| 2026-05-07 21:47 | 50.02627 | 1.98447 | 38098 ft | 438 kts | 328° |
| 2026-05-07 21:48 | 50.07957 | 1.93838 | 38099 ft | 438 kts | 328° |
| 2026-05-07 21:48 | 50.13281 | 1.89223 | 38097 ft | 438 kts | 328° |
| 2026-05-07 21:49 | 50.18337 | 1.84019 | 38104 ft | 433 kts | 315° |
| 2026-05-07 21:49 | 50.22647 | 1.77469 | 38106 ft | 432 kts | 313° |
| 2026-05-07 21:50 | 50.26954 | 1.70915 | 38100 ft | 433 kts | 313° |
| 2026-05-07 21:50 | 50.31239 | 1.64387 | 38096 ft | 433 kts | 313° |
| 2026-05-07 21:51 | 50.35541 | 1.57806 | 38095 ft | 433 kts | 313° |
| 2026-05-07 21:51 | 50.39839 | 1.51199 | 38094 ft | 433 kts | 313° |
| 2026-05-07 21:52 | 50.44129 | 1.44572 | 38103 ft | 433 kts | 313° |
| 2026-05-07 21:52 | 50.48412 | 1.37945 | 38107 ft | 433 kts | 313° |
| 2026-05-07 21:53 | 50.52616 | 1.31186 | 38100 ft | 432 kts | 310° |
| 2026-05-07 21:53 | 50.56670 | 1.24204 | 38097 ft | 432 kts | 309° |
| 2026-05-07 21:54 | 50.60775 | 1.17286 | 38092 ft | 433 kts | 312° |
| 2026-05-07 21:54 | 50.65046 | 1.10598 | 38109 ft | 433 kts | 313° |
| 2026-05-07 21:55 | 50.69346 | 1.03937 | 38115 ft | 433 kts | 313° |
| 2026-05-07 21:55 | 50.73604 | 0.97215 | 38117 ft | 433 kts | 312° |
| 2026-05-07 21:56 | 50.77837 | 0.90462 | 38112 ft | 433 kts | 312° |
| 2026-05-07 21:56 | 50.82070 | 0.83687 | 38105 ft | 433 kts | 312° |
| 2026-05-07 21:57 | 50.86298 | 0.76902 | 38099 ft | 433 kts | 312° |
| 2026-05-07 21:57 | 50.90533 | 0.70109 | 38078 ft | 433 kts | 312° |
| 2026-05-07 21:58 | 50.94762 | 0.63304 | 38026 ft | 433 kts | 312° |
| 2026-05-07 21:58 | 50.98987 | 0.56490 | 37978 ft | 433 kts | 311° |
| 2026-05-07 21:59 | 51.03203 | 0.49658 | 37930 ft | 433 kts | 311° |
| 2026-05-07 21:59 | 51.07419 | 0.42806 | 37891 ft | 434 kts | 312° |
| 2026-05-07 22:00 | 51.11749 | 0.36100 | 37865 ft | 435 kts | 314° |
| 2026-05-07 22:00 | 51.16157 | 0.29493 | 37745 ft | 436 kts | 314° |
| 2026-05-07 22:01 | 51.18381 | 0.26150 | 36867 ft | 442 kts | 314° |
| 2026-05-07 22:01 | 51.20605 | 0.22776 | 36173 ft | 441 kts | 313° |
| 2026-05-07 22:01 | 51.22838 | 0.19361 | 35274 ft | 447 kts | 313° |
| 2026-05-07 22:01 | 51.25075 | 0.15915 | 34629 ft | 447 kts | 313° |
| 2026-05-07 22:02 | 51.27298 | 0.12472 | 34119 ft | 443 kts | 313° |
| 2026-05-07 22:02 | 51.29488 | 0.09076 | 33315 ft | 434 kts | 313° |
| 2026-05-07 22:02 | 51.31640 | 0.05745 | 32326 ft | 428 kts | 313° |
| 2026-05-07 22:02 | 51.33934 | 0.02749 | 31488 ft | 424 kts | 324° |
| 2026-05-07 22:03 | 51.36436 | 0.00353 | 30937 ft | 416 kts | 327° |
| 2026-05-07 22:03 | 51.38925 | -0.01984 | 30424 ft | 412 kts | 327° |
| 2026-05-07 22:03 | 51.41383 | -0.04314 | 29898 ft | 409 kts | 326° |
| 2026-05-07 22:03 | 51.43678 | -0.06502 | 29430 ft | 404 kts | 326° |
| 2026-05-07 22:04 | 51.46073 | -0.08794 | 28942 ft | 398 kts | 326° |
| 2026-05-07 22:04 | 51.48433 | -0.11057 | 28470 ft | 393 kts | 326° |
| 2026-05-07 22:04 | 51.50770 | -0.13293 | 28009 ft | 388 kts | 326° |
| 2026-05-07 22:04 | 51.53042 | -0.15469 | 27557 ft | 384 kts | 326° |
| 2026-05-07 22:05 | 51.55322 | -0.17652 | 27102 ft | 380 kts | 326° |
| 2026-05-07 22:05 | 51.57577 | -0.19812 | 26655 ft | 376 kts | 326° |
| 2026-05-07 22:05 | 51.59810 | -0.21950 | 26204 ft | 372 kts | 326° |
| 2026-05-07 22:05 | 51.61514 | -0.23584 | 25876 ft | 370 kts | 326° |
| 2026-05-07 22:06 | 51.63717 | -0.25698 | 25427 ft | 367 kts | 326° |
| 2026-05-07 22:06 | 51.65897 | -0.27791 | 24997 ft | 364 kts | 326° |
| 2026-05-07 22:06 | 51.68069 | -0.29878 | 24560 ft | 362 kts | 326° |
| 2026-05-07 22:06 | 51.70226 | -0.31956 | 24138 ft | 360 kts | 326° |
| 2026-05-07 22:07 | 51.72368 | -0.34018 | 23726 ft | 358 kts | 326° |
| 2026-05-07 22:07 | 51.74498 | -0.36068 | 23253 ft | 355 kts | 326° |
| 2026-05-07 22:07 | 51.76609 | -0.38107 | 22836 ft | 353 kts | 326° |
| 2026-05-07 22:07 | 51.78544 | -0.39980 | 22456 ft | 351 kts | 326° |
| 2026-05-07 22:08 | 51.80629 | -0.42000 | 22043 ft | 348 kts | 326° |
| 2026-05-07 22:08 | 51.82698 | -0.44000 | 21843 ft | 346 kts | 326° |
| 2026-05-07 22:08 | 51.84764 | -0.45999 | 21636 ft | 346 kts | 326° |
| 2026-05-07 22:08 | 51.86824 | -0.47996 | 21433 ft | 345 kts | 326° |
| 2026-05-07 22:09 | 51.88878 | -0.49994 | 21225 ft | 344 kts | 326° |
| 2026-05-07 22:09 | 51.90920 | -0.51988 | 21015 ft | 343 kts | 326° |
| 2026-05-07 22:09 | 51.92961 | -0.53982 | 20807 ft | 342 kts | 326° |
| 2026-05-07 22:09 | 51.94993 | -0.55968 | 20597 ft | 341 kts | 326° |
| 2026-05-07 22:10 | 51.97020 | -0.57947 | 20384 ft | 340 kts | 326° |
| 2026-05-07 22:10 | 51.99040 | -0.59920 | 20170 ft | 339 kts | 326° |
| 2026-05-07 22:10 | 52.01056 | -0.61891 | 19970 ft | 338 kts | 326° |
| 2026-05-07 22:10 | 52.03064 | -0.63857 | 19750 ft | 337 kts | 326° |
| 2026-05-07 22:11 | 52.05067 | -0.65822 | 19534 ft | 336 kts | 326° |
| 2026-05-07 22:11 | 52.07061 | -0.67784 | 19333 ft | 335 kts | 326° |
| 2026-05-07 22:11 | 52.09052 | -0.69741 | 19123 ft | 334 kts | 326° |
| 2026-05-07 22:11 | 52.11031 | -0.71688 | 18915 ft | 333 kts | 326° |
| 2026-05-07 22:12 | 52.13011 | -0.73637 | 18711 ft | 332 kts | 326° |
| 2026-05-07 22:12 | 52.14982 | -0.75579 | 18499 ft | 331 kts | 326° |
| 2026-05-07 22:12 | 52.16946 | -0.77514 | 18298 ft | 330 kts | 326° |
| 2026-05-07 22:12 | 52.18878 | -0.79425 | 18070 ft | 329 kts | 326° |
| 2026-05-07 22:13 | 52.20832 | -0.81363 | 17866 ft | 328 kts | 326° |
| 2026-05-07 22:13 | 52.22804 | -0.83320 | 17658 ft | 327 kts | 326° |
| 2026-05-07 22:13 | 52.24723 | -0.85226 | 17457 ft | 326 kts | 326° |
| 2026-05-07 22:13 | 52.26660 | -0.87147 | 17261 ft | 325 kts | 326° |
| 2026-05-07 22:14 | 52.28618 | -0.89087 | 17067 ft | 325 kts | 326° |
| 2026-05-07 22:14 | 52.30520 | -0.90972 | 16873 ft | 324 kts | 326° |
| 2026-05-07 22:14 | 52.32444 | -0.92883 | 16669 ft | 323 kts | 326° |
| 2026-05-07 22:14 | 52.34360 | -0.94789 | 16484 ft | 322 kts | 326° |
| 2026-05-07 22:15 | 52.36275 | -0.96700 | 16287 ft | 322 kts | 326° |
| 2026-05-07 22:15 | 52.38178 | -0.98606 | 16096 ft | 321 kts | 326° |
| 2026-05-07 22:15 | 52.40083 | -1.00516 | 15898 ft | 320 kts | 326° |
| 2026-05-07 22:15 | 52.41982 | -1.02418 | 15703 ft | 319 kts | 326° |
| 2026-05-07 22:16 | 52.43875 | -1.04309 | 15482 ft | 319 kts | 326° |
| 2026-05-07 22:16 | 52.45767 | -1.06204 | 15292 ft | 318 kts | 326° |
| 2026-05-07 22:16 | 52.47647 | -1.08094 | 15097 ft | 317 kts | 326° |
| 2026-05-07 22:16 | 52.49521 | -1.09980 | 14900 ft | 316 kts | 326° |
| 2026-05-07 22:17 | 52.51384 | -1.11856 | 14706 ft | 315 kts | 326° |
| 2026-05-07 22:17 | 52.53260 | -1.13746 | 14505 ft | 314 kts | 326° |
| 2026-05-07 22:17 | 52.55121 | -1.15616 | 14326 ft | 314 kts | 326° |
| 2026-05-07 22:17 | 52.56376 | -1.16877 | 14180 ft | 313 kts | 326° |
| 2026-05-07 22:18 | 52.58233 | -1.18744 | 13991 ft | 312 kts | 326° |
| 2026-05-07 22:18 | 52.61924 | -1.22466 | 13589 ft | 310 kts | 326° |
| 2026-05-07 22:18 | 52.63753 | -1.24318 | 13372 ft | 308 kts | 326° |
| 2026-05-07 22:19 | 52.65579 | -1.26167 | 13187 ft | 307 kts | 326° |
| 2026-05-07 22:19 | 52.67395 | -1.28010 | 13003 ft | 306 kts | 326° |
| 2026-05-07 22:19 | 52.69192 | -1.29858 | 12804 ft | 304 kts | 323° |
| 2026-05-07 22:19 | 52.70777 | -1.32120 | 12619 ft | 299 kts | 310° |
| 2026-05-07 22:20 | 52.72130 | -1.34718 | 12439 ft | 298 kts | 308° |
| 2026-05-07 22:20 | 52.73213 | -1.36806 | 12293 ft | 297 kts | 308° |
| 2026-05-07 22:20 | 52.74104 | -1.38519 | 12240 ft | 296 kts | 308° |